Time;durP1;ratioP1;P1;durP2;ratioP2;P2;SDS_P1;SDS_P2;PMS_P1;PMS_P2;Temp;Humidity;BMP_temperature;BMP_pressure;BME280_temperature;BME280_humidity;BME280_pressure;Samples;Min_cycle;Max_cycle;Signal;HPM_P1;HPM_P2
2021/09/19 00:01:27;;;;;;;19.38;12.98;;;;;;;13.02;77.85;96066.56;5092843;28;20414;-80
2021/09/19 00:03:54;;;;;;;16.45;12.63;;;;;;;12.99;78.17;96067.22;5093214;28;20162;-80
2021/09/19 00:06:22;;;;;;;22.58;13.13;;;;;;;12.97;78.12;96070.31;5092461;28;20055;-80
2021/09/19 00:08:48;;;;;;;19.17;13.45;;;;;;;12.99;78.22;96072.69;5092785;28;20048;-79
2021/09/19 00:11:15;;;;;;;18.15;13.05;;;;;;;13.04;77.55;96069.75;5092490;28;20055;-79
2021/09/19 00:13:41;;;;;;;18.13;13.75;;;;;;;12.99;77.80;96068.03;5092661;28;20491;-78
2021/09/19 00:16:08;;;;;;;18.35;13.40;;;;;;;13.04;77.13;96056.06;5092503;28;20040;-79
2021/09/19 00:18:34;;;;;;;22.30;14.85;;;;;;;13.03;77.22;96062.69;5092865;28;20043;-79
2021/09/19 00:21:01;;;;;;;17.85;13.35;;;;;;;13.00;77.84;96060.66;5092580;28;20439;-80
2021/09/19 00:23:29;;;;;;;19.25;14.95;;;;;;;12.95;77.61;96060.88;5092261;28;20051;-80
2021/09/19 00:25:55;;;;;;;19.52;13.63;;;;;;;12.91;77.72;96059.94;5092056;28;20047;-79
2021/09/19 00:28:22;;;;;;;24.15;15.68;;;;;;;12.86;77.68;96060.19;5092109;28;20052;-78
2021/09/19 00:30:48;;;;;;;21.25;15.55;;;;;;;12.86;77.85;96057.44;5092635;28;20418;-80
2021/09/19 00:33:15;;;;;;;20.45;15.20;;;;;;;12.82;77.79;96051.84;5092069;28;20051;-80
2021/09/19 00:35:42;;;;;;;19.67;15.35;;;;;;;12.84;77.80;96054.22;5092493;28;20060;-79
2021/09/19 00:38:08;;;;;;;20.40;14.70;;;;;;;12.85;78.07;96061.31;5091970;28;20541;-80
2021/09/19 00:40:36;;;;;;;20.35;14.77;;;;;;;12.86;78.15;96057.44;5092397;28;20490;-79
2021/09/19 00:43:03;;;;;;;17.85;12.70;;;;;;;12.89;77.13;96056.75;5092163;28;20131;-80
2021/09/19 00:45:29;;;;;;;15.23;11.65;;;;;;;12.85;77.11;96044.91;5092349;28;20052;-79
2021/09/19 00:47:56;;;;;;;20.27;13.55;;;;;;;12.76;77.33;96054.00;5092366;28;20048;-79
2021/09/19 00:50:25;;;;;;;19.23;13.07;;;;;;;12.71;77.35;96053.44;5091911;28;20047;-80
2021/09/19 00:52:52;;;;;;;20.70;12.98;;;;;;;12.74;77.08;96042.63;5091673;28;20055;-79
2021/09/19 00:55:20;;;;;;;16.33;12.68;;;;;;;12.73;76.68;96043.75;5091631;28;20048;-81
2021/09/19 00:57:51;;;;;;;16.38;12.25;;;;;;;12.73;77.20;96048.41;5092229;28;20048;-80
2021/09/19 01:00:20;;;;;;;14.23;11.57;;;;;;;12.70;76.59;96049.91;5091694;28;20052;-80
2021/09/19 01:02:47;;;;;;;17.63;12.48;;;;;;;12.60;76.42;96044.88;5091847;28;20055;-81
2021/09/19 01:05:16;;;;;;;18.13;13.55;;;;;;;12.56;77.38;96054.06;5091581;28;20510;-80
2021/09/19 01:07:44;;;;;;;20.38;14.85;;;;;;;12.53;78.07;96050.09;5091629;28;20502;-80
2021/09/19 01:10:12;;;;;;;20.23;14.02;;;;;;;12.51;78.46;96049.63;5091271;28;20050;-79
2021/09/19 01:12:39;;;;;;;28.90;16.00;;;;;;;12.50;79.85;96039.84;5091739;28;20048;-79
2021/09/19 01:15:10;;;;;;;20.20;14.73;;;;;;;12.54;79.76;96046.22;5091471;28;20067;-80
2021/09/19 01:17:38;;;;;;;23.60;16.45;;;;;;;12.56;80.45;96038.47;5091606;28;20051;-79
2021/09/19 01:20:06;;;;;;;24.85;16.13;;;;;;;12.57;80.47;96042.00;5091117;28;20067;-80
2021/09/19 01:22:33;;;;;;;24.15;16.50;;;;;;;12.55;80.41;96036.88;5091290;28;20048;-79
2021/09/19 01:25:03;;;;;;;22.20;15.80;;;;;;;12.53;81.13;96039.97;5091610;28;20063;-79
2021/09/19 01:27:30;;;;;;;23.92;16.40;;;;;;;12.54;80.75;96040.75;5091467;28;20048;-80
2021/09/19 01:29:56;;;;;;;23.90;15.57;;;;;;;12.54;80.70;96036.09;5091628;28;20044;-78
2021/09/19 01:32:23;;;;;;;21.58;15.43;;;;;;;12.61;79.75;96035.53;5090914;28;20040;-79
2021/09/19 01:34:50;;;;;;;18.90;13.77;;;;;;;12.64;79.24;96034.88;5091635;28;20047;-79
2021/09/19 01:37:17;;;;;;;19.08;13.90;;;;;;;12.64;79.36;96028.63;5090218;28;20521;-79
2021/09/19 01:39:43;;;;;;;18.00;13.15;;;;;;;12.65;78.95;96025.53;5091474;28;20418;-79
2021/09/19 01:42:11;;;;;;;17.00;10.98;;;;;;;12.61;77.34;96032.81;5090781;28;20040;-79
2021/09/19 01:44:38;;;;;;;15.55;10.27;;;;;;;12.43;76.40;96034.94;5091618;28;20044;-79
2021/09/19 01:47:04;;;;;;;16.25;10.27;;;;;;;12.27;76.32;96034.78;5090760;28;20656;-80
2021/09/19 01:49:31;;;;;;;16.08;11.60;;;;;;;12.13;77.04;96026.06;5090607;28;20052;-80
2021/09/19 01:51:58;;;;;;;17.55;12.75;;;;;;;12.08;78.28;96029.00;5089474;28;20040;-80
2021/09/19 01:54:24;;;;;;;20.33;14.27;;;;;;;12.00;78.53;96032.59;5090827;28;20119;-79
2021/09/19 01:56:51;;;;;;;20.23;13.57;;;;;;;11.96;79.73;96020.78;5091213;28;20047;-78
2021/09/19 01:59:19;;;;;;;21.60;15.23;;;;;;;11.99;79.78;96020.91;5090796;28;20048;-79
2021/09/19 02:01:46;;;;;;;21.55;14.70;;;;;;;12.02;80.62;96024.91;5091203;28;20050;-79
2021/09/19 02:04:13;;;;;;;24.02;14.23;;;;;;;12.08;80.05;96026.28;5090781;28;20055;-79
2021/09/19 02:06:39;;;;;;;28.55;12.95;;;;;;;12.08;79.91;96015.38;5091189;28;20051;-78
2021/09/19 02:09:06;;;;;;;24.73;13.88;;;;;;;12.08;79.87;96015.38;5090641;28;20131;-80
2021/09/19 02:11:32;;;;;;;22.27;12.35;;;;;;;12.01;79.55;96015.13;5091188;28;20048;-80
2021/09/19 02:13:59;;;;;;;19.98;11.77;;;;;;;11.92;79.56;96001.56;5091021;28;20040;-79
2021/09/19 02:16:27;;;;;;;18.23;11.68;;;;;;;11.86;79.89;95999.38;5090361;28;20422;-80
2021/09/19 02:18:56;;;;;;;27.75;12.98;;;;;;;11.77;80.33;95997.47;5091023;28;20048;-79
2021/09/19 02:21:23;;;;;;;20.13;13.15;;;;;;;11.73;81.42;95991.09;5089852;28;20431;-80
2021/09/19 02:23:50;;;;;;;17.45;12.15;;;;;;;11.67;81.70;95986.16;5091106;28;20055;-79
2021/09/19 02:26:17;;;;;;;20.70;12.73;;;;;;;11.61;81.59;95982.06;5090466;28;20048;-80
2021/09/19 02:28:43;;;;;;;20.08;14.23;;;;;;;11.61;81.24;95980.13;5091032;28;20055;-80
2021/09/19 02:31:10;;;;;;;22.73;15.27;;;;;;;11.64;81.38;95976.75;5090455;28;20048;-79
2021/09/19 02:33:38;;;;;;;20.10;14.23;;;;;;;11.67;81.33;95976.06;5091041;28;20056;-79
2021/09/19 02:36:05;;;;;;;21.33;14.15;;;;;;;11.73;81.27;95980.16;5090293;28;20398;-79
2021/09/19 02:38:32;;;;;;;17.52;12.55;;;;;;;11.78;80.49;95976.44;5091037;28;20047;-79
2021/09/19 02:40:59;;;;;;;19.77;13.88;;;;;;;11.74;80.41;95970.88;5090888;28;20055;-79
2021/09/19 02:43:25;;;;;;;16.52;12.20;;;;;;;11.75;80.71;95971.66;5090256;28;20055;-80
2021/09/19 02:45:52;;;;;;;17.50;13.07;;;;;;;11.74;80.39;95970.88;5090806;28;20055;-79
2021/09/19 02:48:19;;;;;;;17.98;12.85;;;;;;;11.72;80.29;95967.66;5090570;28;20040;-80
2021/09/19 02:50:47;;;;;;;19.13;13.15;;;;;;;11.69;80.30;95962.91;5094100;28;20419;-80
2021/09/19 02:53:13;;;;;;;17.05;13.02;;;;;;;11.73;79.67;95961.06;5094093;28;20048;-78
2021/09/19 02:55:40;;;;;;;16.88;12.10;;;;;;;11.75;79.72;95967.00;5094510;28;20052;-79
2021/09/19 02:58:06;;;;;;;16.65;12.27;;;;;;;11.76;79.16;95963.16;5093989;28;20048;-78
2021/09/19 03:00:33;;;;;;;17.90;11.98;;;;;;;11.76;79.24;95963.16;5094476;28;20051;-80
2021/09/19 03:03:00;;;;;;;17.73;12.70;;;;;;;11.72;79.22;95956.75;5094409;28;20174;-80
2021/09/19 03:05:26;;;;;;;15.45;11.82;;;;;;;11.68;79.17;95958.56;5094261;28;20058;-79
2021/09/19 03:07:55;;;;;;;17.30;13.02;;;;;;;11.68;79.03;95957.75;5094081;28;20055;-80
2021/09/19 03:10:23;;;;;;;18.65;12.80;;;;;;;11.64;79.39;95952.19;5093698;28;20556;-80
2021/09/19 03:12:50;;;;;;;14.48;11.48;;;;;;;11.63;79.83;95947.84;5092677;28;20460;-80
2021/09/19 03:15:16;;;;;;;15.20;10.90;;;;;;;11.65;78.59;95942.88;5093654;28;20047;-80
2021/09/19 03:17:43;;;;;;;16.35;11.32;;;;;;;11.60;78.60;95948.53;5093973;28;20044;-79
2021/09/19 03:20:12;;;;;;;14.77;10.50;;;;;;;11.54;78.48;95944.41;5092829;28;20056;-80
2021/09/19 03:22:39;;;;;;;13.43;10.20;;;;;;;11.51;78.30;95936.91;5093589;28;20048;-80
2021/09/19 03:25:09;;;;;;;11.98;9.05;;;;;;;11.53;76.47;95942.81;5093326;28;20430;-81
2021/09/19 03:27:35;;;;;;;10.98;8.82;;;;;;;11.49;75.87;95936.44;5093862;28;20055;-80
2021/09/19 03:30:02;;;;;;;11.70;8.75;;;;;;;11.41;75.82;95929.91;5093262;28;20509;-79
2021/09/19 03:32:29;;;;;;;11.60;8.52;;;;;;;11.37;76.32;95928.19;5093667;28;20464;-79
2021/09/19 03:34:55;;;;;;;14.35;10.35;;;;;;;11.30;77.36;95917.03;5093746;28;20639;-79
2021/09/19 03:37:21;;;;;;;10.85;9.40;;;;;;;11.24;77.94;95919.94;5093228;28;20048;-79
2021/09/19 03:39:48;;;;;;;11.90;9.07;;;;;;;11.23;77.28;95912.91;5093706;28;20395;-80
2021/09/19 03:42:16;;;;;;;13.65;10.27;;;;;;;11.18;77.61;95912.31;5092994;28;20045;-81
2021/09/19 03:44:42;;;;;;;14.02;10.75;;;;;;;11.10;78.02;95911.25;5093664;28;20040;-79
2021/09/19 03:47:09;;;;;;;14.90;11.02;;;;;;;11.09;78.95;95908.84;5092915;28;20047;-79
2021/09/19 03:49:35;;;;;;;13.35;10.50;;;;;;;11.08;78.94;95905.34;5093539;28;20392;-79
2021/09/19 03:52:02;;;;;;;12.95;9.63;;;;;;;11.12;79.01;95910.91;5092580;28;20048;-79
2021/09/19 03:54:29;;;;;;;14.00;9.98;;;;;;;11.15;78.16;95905.59;5093415;28;20056;-79
2021/09/19 03:56:55;;;;;;;11.30;9.18;;;;;;;11.16;77.83;95898.22;5093320;28;20085;-79
2021/09/19 03:59:23;;;;;;;10.40;8.95;;;;;;;11.14;77.95;95906.72;5092746;28;20063;-79
2021/09/19 04:01:50;;;;;;;11.65;9.07;;;;;;;11.12;77.45;95903.53;5092227;28;20044;-80
2021/09/19 04:04:16;;;;;;;12.73;9.25;;;;;;;11.06;77.82;95904.84;5092675;28;20055;-78
2021/09/19 04:06:43;;;;;;;13.20;9.88;;;;;;;10.96;78.73;95906.06;5093078;28;20052;-80
2021/09/19 04:09:09;;;;;;;14.00;10.48;;;;;;;10.91;78.95;95911.69;5092571;28;20055;-79
2021/09/19 04:11:36;;;;;;;14.35;11.00;;;;;;;10.97;79.52;95901.41;5093063;28;20060;-79
2021/09/19 04:14:02;;;;;;;18.20;11.48;;;;;;;11.00;79.64;95908.09;5092447;28;20067;-80
2021/09/19 04:16:30;;;;;;;14.27;10.90;;;;;;;11.02;80.34;95905.88;5092973;28;20054;-79
2021/09/19 04:18:57;;;;;;;16.85;11.60;;;;;;;11.09;80.32;95901.47;5092806;28;20048;-79
2021/09/19 04:21:23;;;;;;;14.25;10.55;;;;;;;11.10;80.43;95905.78;5091842;28;20048;-80
2021/09/19 04:23:50;;;;;;;13.13;10.07;;;;;;;11.07;80.49;95906.47;5092579;28;20129;-78
2021/09/19 04:26:16;;;;;;;14.90;10.88;;;;;;;11.02;79.94;95917.56;5092198;28;20044;-80
2021/09/19 04:28:43;;;;;;;15.52;11.52;;;;;;;11.06;79.92;95913.03;5092607;28;20048;-80
2021/09/19 04:31:09;;;;;;;16.05;11.82;;;;;;;11.09;80.72;95908.84;5092221;28;20055;-79
2021/09/19 04:33:37;;;;;;;16.35;12.25;;;;;;;11.08;80.92;95905.34;5092774;28;20059;-79
2021/09/19 04:36:04;;;;;;;15.35;11.85;;;;;;;11.09;80.52;95912.38;5092206;28;20058;-78
2021/09/19 04:38:31;;;;;;;15.18;10.88;;;;;;;11.17;80.02;95907.97;5092676;28;20051;-79
2021/09/19 04:40:57;;;;;;;14.85;10.85;;;;;;;11.16;79.80;95918.06;5092473;28;20051;-79
2021/09/19 04:43:24;;;;;;;17.33;12.32;;;;;;;11.13;79.83;95917.97;5091670;28;20047;-79
2021/09/19 04:45:50;;;;;;;23.77;12.93;;;;;;;11.18;80.32;95909.59;5092378;28;20051;-78
2021/09/19 04:48:19;;;;;;;20.88;13.40;;;;;;;11.26;80.72;95924.28;5091601;28;20044;-79
2021/09/19 04:50:47;;;;;;;21.50;14.27;;;;;;;11.29;81.07;95916.22;5091884;28;20534;-78
2021/09/19 04:53:13;;;;;;;16.55;12.48;;;;;;;11.34;81.13;95924.22;5091720;28;20040;-79
2021/09/19 04:55:40;;;;;;;11.52;8.73;;;;;;;11.41;78.41;95929.13;5092090;28;20047;-78
2021/09/19 04:58:06;;;;;;;24.15;12.73;;;;;;;11.43;78.42;95932.28;5091519;28;20051;-79
2021/09/19 05:00:33;;;;;;;26.45;13.90;;;;;;;11.47;79.12;95941.41;5091867;28;20514;-79
2021/09/19 05:02:59;;;;;;;28.73;15.95;;;;;;;11.44;79.83;95939.38;5091636;28;20040;-79
2021/09/19 05:05:26;;;;;;;29.63;16.85;;;;;;;11.43;80.45;95933.13;5091631;28;20101;-79
2021/09/19 05:07:53;;;;;;;28.95;17.35;;;;;;;11.44;81.39;95944.81;5091853;28;20040;-78
2021/09/19 05:10:20;;;;;;;37.20;19.65;;;;;;;11.48;81.48;95943.00;5090081;28;20048;-79
2021/09/19 05:12:46;;;;;;;38.95;19.10;;;;;;;11.53;81.98;95942.81;5091719;28;20044;-79
2021/09/19 05:15:13;;;;;;;93.88;20.98;;;;;;;11.54;81.48;95938.16;5091259;28;20040;-78
2021/09/19 05:17:39;;;;;;;31.83;19.38;;;;;;;11.58;82.26;95949.97;5091523;28;20048;-80
2021/09/19 05:20:07;;;;;;;33.35;19.23;;;;;;;11.58;82.57;95945.31;5090683;28;20056;-79
2021/09/19 05:22:33;;;;;;;41.13;19.13;;;;;;;11.55;81.99;95950.66;5091750;28;20414;-78
2021/09/19 05:25:01;;;;;;;36.22;19.40;;;;;;;11.59;82.18;95944.22;5091495;28;20055;-79
2021/09/19 05:27:28;;;;;;;33.20;20.42;;;;;;;11.63;81.88;95945.13;5091327;28;20051;-79
2021/09/19 05:29:54;;;;;;;31.50;18.48;;;;;;;11.63;81.96;95942.41;5091338;28;20518;-80
2021/09/19 05:32:21;;;;;;;29.92;19.75;;;;;;;11.68;81.69;95938.66;5091074;28;20051;-80
2021/09/19 05:34:47;;;;;;;31.15;17.85;;;;;;;11.69;81.63;95943.81;5091452;28;20055;-79
2021/09/19 05:37:14;;;;;;;27.42;17.73;;;;;;;11.72;82.01;95937.66;5091078;28;20051;-79
2021/09/19 05:39:40;;;;;;;26.45;18.13;;;;;;;11.74;82.15;95950.97;5091439;28;20059;-79
2021/09/19 05:42:08;;;;;;;28.67;18.25;;;;;;;11.80;80.88;95944.19;5090811;28;20051;-79
2021/09/19 05:44:35;;;;;;;27.08;16.95;;;;;;;11.76;80.87;95951.44;5091451;28;20048;-79
2021/09/19 05:47:01;;;;;;;29.67;18.17;;;;;;;11.84;80.11;95955.25;5090839;28;20044;-77
2021/09/19 05:49:28;;;;;;;25.60;16.58;;;;;;;11.86;80.57;95944.81;5091127;28;20055;-79
2021/09/19 05:51:54;;;;;;;26.60;16.42;;;;;;;11.90;80.80;95951.97;5090841;28;20051;-79
2021/09/19 05:54:21;;;;;;;25.65;16.85;;;;;;;11.95;81.16;95959.13;5090850;28;20063;-79
2021/09/19 05:56:47;;;;;;;27.95;17.27;;;;;;;11.92;81.11;95955.16;5091326;28;20044;-80
2021/09/19 05:59:15;;;;;;;21.20;14.77;;;;;;;11.96;81.43;95960.75;5090950;28;20048;-79
2021/09/19 06:01:42;;;;;;;27.85;15.02;;;;;;;11.97;80.63;95957.69;5091216;28;20055;-80
2021/09/19 06:04:08;;;;;;;22.08;14.23;;;;;;;12.06;80.25;95959.50;5090646;28;20051;-78
2021/09/19 06:06:35;;;;;;;21.58;13.90;;;;;;;12.07;80.46;95951.00;5091112;28;20055;-79
2021/09/19 06:09:01;;;;;;;19.92;13.05;;;;;;;12.07;80.05;95953.75;5090596;28;20040;-75
2021/09/19 06:11:27;;;;;;;18.90;12.48;;;;;;;12.08;79.87;95949.88;5089828;28;20048;-79
2021/09/19 06:13:54;;;;;;;18.38;12.80;;;;;;;12.07;79.45;95948.28;5090986;28;20414;-80
2021/09/19 06:16:22;;;;;;;17.33;12.38;;;;;;;12.04;79.59;95946.22;5090518;28;20503;-82
2021/09/19 06:18:48;;;;;;;18.02;12.52;;;;;;;12.04;80.10;95950.88;5091157;28;20055;-79
2021/09/19 06:21:15;;;;;;;18.20;13.45;;;;;;;12.13;80.07;95948.84;5089913;28;20044;-79
2021/09/19 06:23:41;;;;;;;18.95;12.60;;;;;;;12.16;80.19;95951.72;5092100;28;20048;-79
2021/09/19 06:26:07;;;;;;;17.92;13.45;;;;;;;12.18;80.81;95952.16;5094545;28;20047;-78
2021/09/19 06:28:34;;;;;;;16.75;12.38;;;;;;;12.20;80.20;95958.06;5095129;28;20055;-79
2021/09/19 06:31:01;;;;;;;17.67;12.52;;;;;;;12.25;79.78;95957.06;5094908;28;20051;-78
2021/09/19 06:33:29;;;;;;;17.48;12.48;;;;;;;12.32;79.26;95948.31;5094595;28;20101;-79
2021/09/19 06:35:56;;;;;;;17.20;13.20;;;;;;;12.36;79.10;95946.50;5094832;28;20127;-79
2021/09/19 06:38:22;;;;;;;16.52;12.40;;;;;;;12.43;79.96;95942.09;5094059;28;20055;-79
2021/09/19 06:40:49;;;;;;;17.58;12.63;;;;;;;12.48;78.95;95943.81;5094616;28;20055;-79
2021/09/19 06:43:15;;;;;;;17.08;13.15;;;;;;;12.52;79.27;95942.75;5094268;28;20059;-79
2021/09/19 06:45:42;;;;;;;17.80;12.82;;;;;;;12.60;79.13;95935.63;5094634;28;20040;-79
2021/09/19 06:48:08;;;;;;;17.65;13.23;;;;;;;12.59;79.41;95934.03;5094205;28;20487;-79
2021/09/19 06:50:36;;;;;;;19.02;14.10;;;;;;;12.64;80.01;95931.06;5093933;28;20055;-78
2021/09/19 06:53:02;;;;;;;18.45;13.15;;;;;;;12.67;79.80;95935.84;5094083;28;20051;-79
2021/09/19 06:55:29;;;;;;;21.30;14.70;;;;;;;12.68;79.65;95934.69;5094253;28;20052;-79
2021/09/19 06:57:56;;;;;;;22.02;14.93;;;;;;;12.71;80.12;95936.75;5094513;28;20052;-78
2021/09/19 07:00:24;;;;;;;25.42;16.00;;;;;;;12.79;80.43;95933.13;5094032;28;20491;-78
2021/09/19 07:02:50;;;;;;;29.17;16.50;;;;;;;12.84;80.34;95939.47;5094275;28;20048;-79
2021/09/19 07:05:17;;;;;;;30.25;17.83;;;;;;;12.85;80.28;95941.09;5093763;28;20052;-78
2021/09/19 07:07:44;;;;;;;31.77;18.92;;;;;;;12.85;79.89;95939.16;5094038;28;20055;-78
2021/09/19 07:10:12;;;;;;;37.38;20.08;;;;;;;12.88;80.37;95943.13;5093524;28;20051;-78
2021/09/19 07:12:39;;;;;;;31.95;17.17;;;;;;;12.89;80.13;95947.44;5094133;28;20047;-78
2021/09/19 07:15:07;;;;;;;34.03;18.80;;;;;;;12.93;80.26;95946.41;5093566;28;20473;-78
2021/09/19 07:17:34;;;;;;;35.55;19.52;;;;;;;12.93;80.56;95942.88;5094121;28;20051;-78
2021/09/19 07:20:00;;;;;;;35.72;19.45;;;;;;;12.96;80.59;95947.69;5093244;28;20055;-79
2021/09/19 07:22:27;;;;;;;38.63;19.77;;;;;;;12.99;80.60;95946.97;5093492;28;20047;-80
2021/09/19 07:24:55;;;;;;;36.08;19.90;;;;;;;12.98;80.92;95946.19;5093733;28;20052;-80
2021/09/19 07:27:22;;;;;;;35.40;20.95;;;;;;;13.07;81.05;95943.34;5093313;28;20075;-78
2021/09/19 07:29:49;;;;;;;37.22;21.25;;;;;;;13.15;81.50;95947.06;5093911;28;20048;-79
2021/09/19 07:32:16;;;;;;;37.40;21.35;;;;;;;13.19;80.46;95935.09;5093171;28;20074;-78
2021/09/19 07:34:43;;;;;;;32.28;19.88;;;;;;;13.20;80.16;95936.69;5092979;28;20052;-79
2021/09/19 07:37:10;;;;;;;33.60;21.02;;;;;;;13.21;80.77;95938.34;5092636;28;20054;-78
2021/09/19 07:39:37;;;;;;;35.70;21.35;;;;;;;13.27;80.40;95942.44;5093646;28;20055;-79
2021/09/19 07:42:05;;;;;;;34.00;20.20;;;;;;;13.35;80.71;95937.16;5093126;28;20044;-78
2021/09/19 07:44:34;;;;;;;33.28;20.27;;;;;;;13.37;80.05;95934.88;5093771;28;20055;-80
2021/09/19 07:47:01;;;;;;;31.20;19.90;;;;;;;13.44;80.25;95940.56;5093405;28;20446;-79
2021/09/19 07:49:28;;;;;;;25.45;17.90;;;;;;;13.50;79.92;95939.16;5093263;28;20044;-78
2021/09/19 07:51:55;;;;;;;27.27;19.30;;;;;;;13.50;79.24;95941.91;5093059;28;20040;-79
2021/09/19 07:54:22;;;;;;;25.73;18.40;;;;;;;13.53;79.59;95942.00;5092774;28;20392;-78
2021/09/19 07:56:49;;;;;;;25.10;17.80;;;;;;;13.59;79.50;95942.56;5093436;28;20406;-79
2021/09/19 07:59:17;;;;;;;24.88;18.05;;;;;;;13.72;79.72;95944.09;5092941;28;20047;-79
2021/09/19 08:01:43;;;;;;;25.52;18.02;;;;;;;13.78;79.16;95940.00;5093206;28;20047;-78
2021/09/19 08:04:10;;;;;;;25.55;18.00;;;;;;;13.91;78.26;95946.19;5092838;28;20406;-79
2021/09/19 08:06:36;;;;;;;26.00;17.60;;;;;;;14.15;77.61;95942.56;5093103;28;20048;-79
2021/09/19 08:09:03;;;;;;;23.23;16.83;;;;;;;14.81;77.80;95950.09;5092822;28;20051;-78
2021/09/19 08:11:30;;;;;;;22.00;15.88;;;;;;;15.38;73.07;95958.88;5092685;28;20044;-80
2021/09/19 08:14:05;;;;;;;22.20;15.73;;;;;;;15.79;72.11;95953.88;5092979;28;20040;-79
2021/09/19 08:16:33;;;;;;;24.40;16.33;;;;;;;16.46;69.51;95951.63;5092755;28;20056;-79
2021/09/19 08:19:00;;;;;;;20.25;14.27;;;;;;;17.39;68.19;95948.44;5093012;28;20040;-79
2021/09/19 08:21:26;;;;;;;20.35;15.15;;;;;;;18.31;63.65;95948.00;5091704;28;20040;-77
2021/09/19 08:23:53;;;;;;;17.45;13.90;;;;;;;19.21;60.14;95949.59;5093095;28;20044;-78
2021/09/19 08:26:19;;;;;;;20.70;15.40;;;;;;;19.88;56.59;95954.75;5092114;28;20406;-77
2021/09/19 08:28:46;;;;;;;22.20;14.00;;;;;;;20.25;54.58;95946.22;5092723;28;20047;-79
2021/09/19 08:31:13;;;;;;;15.38;12.85;;;;;;;20.62;52.88;95952.63;5092109;28;20051;-78
2021/09/19 08:33:41;;;;;;;15.05;12.45;;;;;;;21.01;53.03;95950.72;5092799;28;20071;-78
2021/09/19 08:36:07;;;;;;;14.63;12.43;;;;;;;21.54;50.97;95954.63;5092315;28;20055;-79
2021/09/19 08:38:34;;;;;;;14.25;11.65;;;;;;;21.96;49.43;95950.16;5092944;28;20044;-79
2021/09/19 08:41:00;;;;;;;14.32;11.10;;;;;;;22.18;48.65;95956.44;5092409;28;20036;-79
2021/09/19 08:43:27;;;;;;;12.65;10.40;;;;;;;22.05;48.25;95951.31;5092343;28;20403;-80
2021/09/19 08:45:53;;;;;;;12.07;9.18;;;;;;;21.71;49.29;95955.78;5092128;28;20044;-80
2021/09/19 08:48:21;;;;;;;9.35;8.35;;;;;;;21.27;49.68;95945.94;5091724;28;20048;-77
2021/09/19 08:50:51;;;;;;;12.65;8.75;;;;;;;21.25;50.90;95940.03;5091847;28;20561;-78
2021/09/19 08:53:18;;;;;;;10.25;7.50;;;;;;;21.06;51.02;95941.22;5091779;28;20522;-78
2021/09/19 08:55:45;;;;;;;10.30;7.65;;;;;;;20.75;51.63;95940.81;5092209;28;20490;-78
2021/09/19 08:58:12;;;;;;;9.32;7.68;;;;;;;20.22;52.56;95940.69;5091590;28;20092;-79
2021/09/19 09:00:41;;;;;;;7.78;6.90;;;;;;;19.79;54.05;95946.06;5091942;28;20075;-78
2021/09/19 09:03:12;;;;;;;9.70;7.05;;;;;;;19.67;53.84;95951.91;5091783;28;20066;-78
2021/09/19 09:05:39;;;;;;;9.85;7.10;;;;;;;19.58;54.74;95948.69;5091802;28;20059;-78
2021/09/19 09:08:09;;;;;;;9.05;6.63;;;;;;;19.36;55.41;95950.50;5091270;28;20040;-78
2021/09/19 09:10:39;;;;;;;7.72;6.88;;;;;;;19.17;56.69;95948.81;5091811;28;20098;-81
2021/09/19 09:13:08;;;;;;;8.73;6.53;;;;;;;19.08;56.76;95945.59;5091059;28;20044;-82
2021/09/19 09:15:36;;;;;;;8.20;6.53;;;;;;;18.92;56.28;95949.41;5091492;28;20139;-78
2021/09/19 09:18:05;;;;;;;8.88;7.03;;;;;;;18.68;56.96;95949.97;5090886;28;20059;-80
2021/09/19 09:20:52;;;;;;;9.20;6.45;;;;;;;18.47;58.08;95942.25;5090395;28;20040;-79
2021/09/19 09:23:29;;;;;;;7.93;6.63;;;;;;;18.46;58.52;95944.22;5091081;28;20048;-80
2021/09/19 09:26:20;;;;;;;9.80;6.90;;;;;;;18.64;58.56;95943.63;5091431;28;20501;-78
2021/09/19 09:28:50;;;;;;;9.15;6.97;;;;;;;18.89;58.63;95938.31;5091402;28;20491;-79
2021/09/19 09:31:26;;;;;;;8.85;6.63;;;;;;;19.22;55.97;95934.66;5090949;28;20048;-78
2021/09/19 09:33:58;;;;;;;13.00;8.80;;;;;;;19.32;54.79;95933.94;5091517;28;20052;-79
2021/09/19 09:36:32;;;;;;;9.82;7.55;;;;;;;19.45;55.36;95926.91;5091030;28;20040;-77
2021/09/19 09:39:00;;;;;;;8.80;6.75;;;;;;;19.60;55.47;95933.31;5091597;28;20047;-78
2021/09/19 09:41:40;;;;;;;10.65;7.10;;;;;;;19.72;56.35;95921.16;5091095;28;20066;-78
2021/09/19 09:44:25;;;;;;;7.53;5.53;;;;;;;19.90;56.12;95913.72;5091110;28;20048;-78
2021/09/19 09:46:52;;;;;;;8.63;6.70;;;;;;;19.96;54.43;95917.69;5091408;28;20044;-78
2021/09/19 09:49:22;;;;;;;9.20;6.85;;;;;;;19.93;55.34;95918.47;5090420;28;20044;-77
2021/09/19 09:51:49;;;;;;;8.05;7.07;;;;;;;19.93;57.06;95924.00;5090975;28;20048;-80
2021/09/19 09:54:16;;;;;;;7.75;6.68;;;;;;;20.08;55.47;95920.09;5090754;28;20046;-78
2021/09/19 09:56:44;;;;;;;9.88;6.95;;;;;;;20.26;55.00;95914.63;5090927;28;20414;-79
2021/09/19 09:59:11;;;;;;;8.07;6.10;;;;;;;20.44;55.08;95914.66;5088653;28;20097;-78
2021/09/19 10:01:40;;;;;;;7.90;6.53;;;;;;;20.61;52.92;95912.34;5091123;28;20048;-78
2021/09/19 10:04:07;;;;;;;8.07;6.63;;;;;;;20.40;54.27;95916.63;5090471;28;20406;-76
2021/09/19 10:06:33;;;;;;;8.00;6.80;;;;;;;20.28;54.47;95917.78;5091146;28;20052;-77
2021/09/19 10:09:00;;;;;;;7.10;5.82;;;;;;;20.15;55.32;95921.28;5091074;28;20048;-79
2021/09/19 10:11:28;;;;;;;7.28;5.97;;;;;;;20.02;55.66;95910.59;5090616;28;20040;-80
2021/09/19 10:13:55;;;;;;;10.05;6.95;;;;;;;20.17;55.31;95916.19;5090697;28;20036;-79
2021/09/19 10:16:22;;;;;;;7.03;6.15;;;;;;;20.33;54.92;95909.13;5090055;28;20517;-80
2021/09/19 10:18:49;;;;;;;7.47;5.85;;;;;;;20.46;55.24;95917.84;5090982;28;20040;-79
2021/09/19 10:21:19;;;;;;;6.68;5.45;;;;;;;20.58;54.95;95903.66;5089712;28;20605;-79
2021/09/19 10:23:46;;;;;;;7.05;5.55;;;;;;;20.67;53.82;95910.75;5090791;28;20089;-77
2021/09/19 10:26:22;;;;;;;7.57;6.07;;;;;;;20.73;51.80;95911.97;5090191;28;20046;-78
2021/09/19 10:28:52;;;;;;;6.65;5.80;;;;;;;20.72;54.07;95913.13;5090868;28;20041;-78
2021/09/19 10:31:30;;;;;;;6.43;5.32;;;;;;;20.65;54.71;95907.59;5090246;28;20079;-80
2021/09/19 10:33:59;;;;;;;7.93;5.93;;;;;;;20.53;54.69;95906.81;5090790;28;20499;-81
2021/09/19 10:36:31;;;;;;;7.30;6.22;;;;;;;20.40;53.56;95902.78;5090411;28;20056;-80
2021/09/19 10:39:26;;;;;;;8.15;6.22;;;;;;;20.21;55.13;95905.94;5090972;28;20048;-79
2021/09/19 10:42:17;;;;;;;9.13;6.65;;;;;;;20.00;55.71;95901.94;5087393;28;20070;-79
2021/09/19 10:45:02;;;;;;;6.88;5.90;;;;;;;19.84;55.72;95897.91;5090668;28;20046;-79
2021/09/19 10:47:42;;;;;;;7.72;6.50;;;;;;;19.69;57.47;95900.63;5090615;28;20402;-80
2021/09/19 10:50:27;;;;;;;7.80;6.03;;;;;;;19.51;57.45;95900.50;5089787;28;20130;-79
2021/09/19 10:52:56;;;;;;;7.25;6.05;;;;;;;19.39;57.51;95895.31;5090650;28;20048;-79
2021/09/19 10:55:30;;;;;;;7.28;5.70;;;;;;;19.44;57.01;95894.94;5090204;28;20039;-79
2021/09/19 10:58:00;;;;;;;5.93;4.68;;;;;;;19.50;56.77;95890.63;5090638;28;20052;-78
2021/09/19 11:00:29;;;;;;;6.03;4.93;;;;;;;19.47;55.78;95896.94;5090071;28;20044;-78
2021/09/19 11:03:05;;;;;;;7.03;5.03;;;;;;;19.47;55.82;95891.44;5090553;28;20048;-79
2021/09/19 11:05:33;;;;;;;6.18;4.97;;;;;;;19.43;56.62;95890.59;5090222;28;20110;-79
2021/09/19 11:08:17;;;;;;;10.98;5.50;;;;;;;19.42;56.75;95894.56;5090719;28;20048;-79
2021/09/19 11:11:10;;;;;;;7.03;5.47;;;;;;;19.48;55.28;95893.00;5092596;28;20479;-81
2021/09/19 11:13:41;;;;;;;6.28;5.28;;;;;;;19.64;56.47;95872.59;5093883;28;20043;-80
2021/09/19 11:16:40;;;;;;;6.85;4.95;;;;;;;19.84;56.20;95876.63;5093509;28;20047;-80
2021/09/19 11:19:10;;;;;;;6.35;4.80;;;;;;;19.85;55.72;95875.44;5030754;28;20045;-80
2021/09/19 11:21:46;;;;;;;6.03;4.85;;;;;;;19.78;55.25;95878.16;5080458;28;20548;-80
2021/09/19 11:24:15;;;;;;;4.43;3.78;;;;;;;19.72;55.20;95880.50;5093313;28;20384;-79
2021/09/19 11:26:44;;;;;;;6.80;4.55;;;;;;;19.67;55.87;95872.59;5093788;28;20293;-80